FVKB

Kariba International Airport

Kariba, Zimbabwe
METAR FVKB 200400Z 00000KT CAVOK 22/21 Q1012
Observed Flight Rules
Feb-20 @ 04:00 UTC (3 hours ago) Visual Flight Rules
Wind Visibility Clouds
Calm 10,000+ meters
  • Clear skies
Temperatures Readings
Current 22°C / 72°F
Dewpoint 21°C / 70°F
Humidity 94%
Altimeter 29.88" Hg
Pressure 1012 hPa
Elevation 518
METAR FVKB 200400Z 00000KT CAVOK 22/21 Q1012
Observed Flight Rules
Feb-20 @ 04:00 UTC
(3 hours ago)
VFR
Wind Visibility
Calm 10,000+ meters
Clouds
  • Clear skies
Temperature Dewpoint
22°C / 72°F 21°C / 70°F
Humidity Altimeter Pressure
94% 29.88" Hg 1012 hPa